Flight Track Log - Related Links

Times and Time Zones

All times are in EDT time to prevent confusion due to time zone crossing. See the JAL332 flight status page for this flight to view local times or setup timezone preferences in your user account.

Time Position Orientation Groundspeed Altitude Reporting Facility
EDT Latitude Longitude Course Direction KTS MPH feet Rate Location/Type
Thu 07:13:00 AM 33.6943 130.8771 73° East  Level Estimated
Thu 07:14:00 AM 33.7299 131.0197 73° East  Level Estimated
Thu 07:15:00 AM 33.7653 131.1623 73° East  Level Estimated
Thu 07:16:00 AM 33.8005 131.3051 73° East  Level Estimated
Thu 07:17:00 AM 33.8356 131.4480 74° East  Level Estimated
Thu 07:18:00 AM 33.8705 131.5910 74° East  Level Estimated
Thu 07:19:00 AM 33.9052 131.7342 74° East  Level Estimated
Thu 07:20:00 AM 33.9398 131.8774 74° East  Level Estimated
Thu 07:21:00 AM 33.9742 132.0208 74° East  Level Estimated
Thu 07:22:00 AM 34.0085 132.1643 74° East  Level Estimated
Thu 07:23:00 AM 34.0425 132.3079 74° East  Level Estimated
Thu 07:24:00 AM 34.0765 132.4516 74° East  Level Estimated
Thu 07:25:00 AM 34.1102 132.5954 74° East  Level Estimated
Thu 07:26:00 AM 34.1438 132.7393 74° East  Level Estimated
Thu 07:27:00 AM 34.1772 132.8834 74° East  Level Estimated
Thu 07:28:00 AM 34.2104 133.0276 74° East  Level Estimated
Thu 07:29:00 AM 34.2435 133.1718 74° East  Level Estimated
Thu 07:30:00 AM 34.2764 133.3163 75° East  Level Estimated
Thu 07:31:00 AM 34.3091 133.4608 75° East  Level Estimated
Thu 07:32:00 AM 34.3417 133.6054 75° East  Level Estimated
Thu 07:33:00 AM 34.3741 133.7501 75° East  Level Estimated
Thu 07:34:00 AM 34.4063 133.8949 75° East  Level Estimated
Thu 07:35:00 AM 34.4384 134.0399 75° East  Level Estimated
Thu 07:36:00 AM 34.4702 134.1850 75° East  Level Estimated
Thu 07:37:00 AM 34.5019 134.3302 75° East  Level Estimated
Thu 07:38:00 AM 34.5335 134.4754 75° East  Level Estimated
Thu 07:39:00 AM 34.5614 134.6047 75° East  Level Estimated
Thu 07:40:00 AM 34.5891 134.7340 75° East  Level Estimated
Thu 07:41:00 AM 34.6167 134.8634 75° East  Level Estimated
Thu 07:42:00 AM 34.6442 134.9929 76° East  Level Estimated
Thu 07:43:00 AM 34.6716 135.1225 76° East  Level Estimated
Thu 07:44:00 AM 34.6987 135.2522 76° East  Level Estimated
Thu 07:45:00 AM 34.7258 135.3819 76° East  Level Estimated
Thu 07:46:00 AM 34.7528 135.5118 76° East  Level Estimated
Thu 07:47:00 AM 34.7788 135.6382 76° East  Level Estimated
Thu 07:48:00 AM 34.8048 135.7647 76° East  Level Estimated
Thu 07:49:00 AM 34.8306 135.8912 76° East  Level Estimated
Thu 07:50:00 AM 34.8562 136.0179 76° East  Level Estimated
Thu 07:51:00 AM 34.8818 136.1446 76° East  Level Estimated
Thu 07:52:00 AM 34.9072 136.2714 76° East  Level Estimated
Thu 07:53:00 AM 34.9364 136.4181 76° East  Level Estimated
Thu 07:54:00 AM 34.9655 136.5649 76° East  Level Estimated
Thu 07:55:00 AM 34.9943 136.7119 76° East  Level Estimated
Thu 07:56:00 AM 35.0230 136.8589 77° East  Level Estimated
Thu 07:57:00 AM 35.0515 137.0060 77° East  Level Estimated
Thu 07:58:00 AM 35.0798 137.1532 77° East  Level Estimated
Thu 07:59:00 AM 35.1080 137.3006 77° East  Level Estimated
Thu 08:00:00 AM 35.1360 137.4480 77° East  Level Estimated
Thu 08:01:00 AM 35.1638 137.5956 77° East  Level Estimated
Thu 08:02:00 AM 35.1914 137.7432 77° East  Level Estimated
Thu 08:03:00 AM 35.2188 137.8909 77° East  Level Estimated
Thu 08:04:00 AM 35.2461 138.0388 77° East  Level Estimated
Thu 08:05:00 AM 35.2709 138.1740 77° East  Level Estimated
Thu 08:06:00 AM 35.2955 138.3094 77° East  Level Estimated
Thu 08:07:00 AM 35.3199 138.4448 77° East  Level Estimated
Thu 08:08:00 AM 35.3442 138.5803 78° East  Level Estimated
Thu 08:09:00 AM 35.3684 138.7159 78° East  Level Estimated
Thu 08:10:00 AM 35.3924 138.8515 78° East  Level Estimated
Thu 08:11:00 AM 35.4163 138.9872 78° East  Level Estimated
Thu 08:12:00 AM 35.4400 139.1231 78° East  Level Estimated
Thu 08:13:00 AM 35.4635 139.2590 78° East  Level Estimated
Thu 08:14:00 AM 35.4869 139.3949 78° East  Level Estimated
Thu 08:15:00 AM 35.5102 139.5310 78° East  Level Estimated
Thu 08:16:00 AM 35.5333 139.6671 78° East  Level Estimated
Thu 08:17:00 AM 35.5523 139.7797 78° East  Level Estimated
Thu 08:18:00 AM 35.5523 139.7797 122° Southeast  Level Estimated
Thu 08:19:00 AM 35.5523 139.7797 122° Southeast  Level Estimated
Thu 08:20:00 AM 35.5523 139.7797 122° Southeast  Level Estimated
Thu 08:21:00 AM 35.5523 139.7797 122° Southeast  Level Estimated
Thu 08:22:00 AM 35.5523 139.7797 122° Southeast  Level Estimated
Thu 08:23:00 AM 35.5523 139.7797 122° Southeast  Level Estimated
Thu 08:24:00 AM 35.5523 139.7797 122° Southeast  Level Estimated
Thu 08:25:00 AM 35.5523 139.7797 122° Southeast  Level Estimated
Thu 08:26:00 AM 35.5523 139.7797 122° Southeast  Level Estimated
Thu 08:27:00 AM 35.5523 139.7797 122° Southeast  Level Estimated
Thu 08:28:00 AM 35.5523 139.7797 122° Southeast  Level Estimated
Thu 08:29:00 AM 35.5523 139.7797 122° Southeast  Level Estimated
Thu 08:30:00 AM 35.5523 139.7797 122° Southeast  Level Estimated
Thu 08:31:00 AM 35.5523 139.7797 122° Southeast  Level Estimated
Thu 08:32:00 AM 35.5523 139.7797 122° Southeast  Level Estimated
Thu 08:33:00 AM 35.5523 139.7797 122° Southeast  Level Estimated
Thu 08:34:00 AM 35.5523 139.7797 122° Southeast  Level Estimated
Thu 08:35:00 AM 35.5523 139.7797 122° Southeast  Level Estimated
Thu 08:36:00 AM 35.5523 139.7797 122° Southeast  Level Estimated

Login

Don't have an account? Register now (free) for customized features, flight alerts, and more!